sensor_id;sensor_type;location;lat;lon;timestamp;P1;durP1;ratioP1;P2;durP2;ratioP2
39788;SDS011;25478;42.626;23.320;2023-04-15T00:00:28;6.17;;;4.07;;
39788;SDS011;25478;42.626;23.320;2023-04-15T00:02:53;8.00;;;3.87;;
39788;SDS011;25478;42.626;23.320;2023-04-15T00:05:19;7.53;;;4.07;;
39788;SDS011;25478;42.626;23.320;2023-04-15T00:07:46;7.80;;;4.70;;
39788;SDS011;25478;42.626;23.320;2023-04-15T00:10:12;6.60;;;3.83;;
39788;SDS011;25478;42.626;23.320;2023-04-15T00:12:38;7.63;;;4.03;;
39788;SDS011;25478;42.626;23.320;2023-04-15T00:15:05;6.47;;;3.40;;
39788;SDS011;25478;42.626;23.320;2023-04-15T00:17:32;8.13;;;3.90;;
39788;SDS011;25478;42.626;23.320;2023-04-15T00:19:58;9.13;;;4.07;;
39788;SDS011;25478;42.626;23.320;2023-04-15T00:22:24;7.50;;;4.47;;
39788;SDS011;25478;42.626;23.320;2023-04-15T00:24:51;8.23;;;4.83;;
39788;SDS011;25478;42.626;23.320;2023-04-15T00:27:18;9.07;;;4.33;;
39788;SDS011;25478;42.626;23.320;2023-04-15T00:29:44;6.93;;;4.27;;
39788;SDS011;25478;42.626;23.320;2023-04-15T00:32:10;9.13;;;4.57;;
39788;SDS011;25478;42.626;23.320;2023-04-15T00:34:35;9.20;;;4.33;;
39788;SDS011;25478;42.626;23.320;2023-04-15T00:37:01;9.03;;;5.17;;
39788;SDS011;25478;42.626;23.320;2023-04-15T00:39:27;8.57;;;4.83;;
39788;SDS011;25478;42.626;23.320;2023-04-15T00:41:52;7.83;;;3.73;;
39788;SDS011;25478;42.626;23.320;2023-04-15T00:44:18;7.30;;;3.70;;
39788;SDS011;25478;42.626;23.320;2023-04-15T00:46:44;6.07;;;3.17;;
39788;SDS011;25478;42.626;23.320;2023-04-15T00:49:10;8.40;;;2.97;;
39788;SDS011;25478;42.626;23.320;2023-04-15T00:51:37;5.80;;;2.90;;
39788;SDS011;25478;42.626;23.320;2023-04-15T00:54:03;5.93;;;3.13;;
39788;SDS011;25478;42.626;23.320;2023-04-15T00:56:30;3.90;;;2.60;;
39788;SDS011;25478;42.626;23.320;2023-04-15T00:58:56;5.90;;;2.60;;
39788;SDS011;25478;42.626;23.320;2023-04-15T01:01:23;5.73;;;3.00;;
39788;SDS011;25478;42.626;23.320;2023-04-15T01:03:50;5.80;;;2.80;;
39788;SDS011;25478;42.626;23.320;2023-04-15T01:06:16;4.40;;;2.87;;
39788;SDS011;25478;42.626;23.320;2023-04-15T01:08:43;5.47;;;2.83;;
39788;SDS011;25478;42.626;23.320;2023-04-15T01:11:12;4.93;;;2.80;;
39788;SDS011;25478;42.626;23.320;2023-04-15T01:13:39;7.67;;;3.10;;
39788;SDS011;25478;42.626;23.320;2023-04-15T01:16:06;6.63;;;3.33;;
39788;SDS011;25478;42.626;23.320;2023-04-15T01:18:33;7.83;;;2.97;;
39788;SDS011;25478;42.626;23.320;2023-04-15T01:20:59;6.53;;;3.03;;
39788;SDS011;25478;42.626;23.320;2023-04-15T01:23:26;7.07;;;2.70;;
39788;SDS011;25478;42.626;23.320;2023-04-15T01:25:52;4.83;;;2.53;;
39788;SDS011;25478;42.626;23.320;2023-04-15T01:28:18;5.13;;;2.87;;
39788;SDS011;25478;42.626;23.320;2023-04-15T01:30:44;5.60;;;2.77;;
39788;SDS011;25478;42.626;23.320;2023-04-15T01:33:10;6.50;;;3.07;;
39788;SDS011;25478;42.626;23.320;2023-04-15T01:35:36;8.43;;;3.33;;
39788;SDS011;25478;42.626;23.320;2023-04-15T01:38:06;8.43;;;3.30;;
39788;SDS011;25478;42.626;23.320;2023-04-15T01:40:33;6.40;;;3.03;;
39788;SDS011;25478;42.626;23.320;2023-04-15T01:42:59;7.03;;;3.63;;
39788;SDS011;25478;42.626;23.320;2023-04-15T01:45:29;5.33;;;3.20;;
39788;SDS011;25478;42.626;23.320;2023-04-15T01:47:55;4.93;;;3.00;;
39788;SDS011;25478;42.626;23.320;2023-04-15T01:50:20;5.87;;;3.60;;
39788;SDS011;25478;42.626;23.320;2023-04-15T01:52:46;6.60;;;3.90;;
39788;SDS011;25478;42.626;23.320;2023-04-15T01:55:12;5.60;;;3.40;;
39788;SDS011;25478;42.626;23.320;2023-04-15T01:57:38;6.40;;;4.37;;
39788;SDS011;25478;42.626;23.320;2023-04-15T02:00:05;5.63;;;3.73;;
39788;SDS011;25478;42.626;23.320;2023-04-15T02:02:38;6.93;;;4.07;;
39788;SDS011;25478;42.626;23.320;2023-04-15T02:05:04;7.50;;;4.03;;
39788;SDS011;25478;42.626;23.320;2023-04-15T02:07:29;5.37;;;3.20;;
39788;SDS011;25478;42.626;23.320;2023-04-15T02:09:56;6.57;;;2.90;;
39788;SDS011;25478;42.626;23.320;2023-04-15T02:12:22;5.37;;;3.20;;
39788;SDS011;25478;42.626;23.320;2023-04-15T02:14:48;6.53;;;2.83;;
39788;SDS011;25478;42.626;23.320;2023-04-15T02:17:14;6.00;;;2.73;;
39788;SDS011;25478;42.626;23.320;2023-04-15T02:19:41;7.07;;;3.23;;
39788;SDS011;25478;42.626;23.320;2023-04-15T02:22:07;5.37;;;2.60;;
39788;SDS011;25478;42.626;23.320;2023-04-15T02:24:33;4.80;;;2.63;;
39788;SDS011;25478;42.626;23.320;2023-04-15T02:27:00;3.83;;;2.67;;
39788;SDS011;25478;42.626;23.320;2023-04-15T02:29:27;5.40;;;2.37;;
39788;SDS011;25478;42.626;23.320;2023-04-15T02:31:52;6.53;;;2.53;;
39788;SDS011;25478;42.626;23.320;2023-04-15T02:34:18;6.63;;;2.70;;
39788;SDS011;25478;42.626;23.320;2023-04-15T02:36:44;4.80;;;2.77;;
39788;SDS011;25478;42.626;23.320;2023-04-15T02:39:13;6.30;;;2.60;;
39788;SDS011;25478;42.626;23.320;2023-04-15T02:41:41;4.03;;;2.80;;
39788;SDS011;25478;42.626;23.320;2023-04-15T02:44:08;4.40;;;2.70;;
39788;SDS011;25478;42.626;23.320;2023-04-15T02:46:34;6.00;;;2.40;;
39788;SDS011;25478;42.626;23.320;2023-04-15T02:49:00;7.13;;;3.03;;
39788;SDS011;25478;42.626;23.320;2023-04-15T02:51:28;4.97;;;2.13;;
39788;SDS011;25478;42.626;23.320;2023-04-15T02:53:55;4.90;;;2.60;;
39788;SDS011;25478;42.626;23.320;2023-04-15T02:56:22;4.70;;;2.50;;
39788;SDS011;25478;42.626;23.320;2023-04-15T02:58:48;7.20;;;3.73;;
39788;SDS011;25478;42.626;23.320;2023-04-15T03:01:14;13.90;;;6.40;;
39788;SDS011;25478;42.626;23.320;2023-04-15T03:03:40;8.20;;;3.80;;
39788;SDS011;25478;42.626;23.320;2023-04-15T03:06:06;6.70;;;3.10;;
39788;SDS011;25478;42.626;23.320;2023-04-15T03:08:33;6.60;;;3.50;;
39788;SDS011;25478;42.626;23.320;2023-04-15T03:10:59;6.33;;;3.23;;
39788;SDS011;25478;42.626;23.320;2023-04-15T03:13:26;5.43;;;2.87;;
39788;SDS011;25478;42.626;23.320;2023-04-15T03:15:53;7.93;;;3.30;;
39788;SDS011;25478;42.626;23.320;2023-04-15T03:18:20;6.47;;;3.43;;
39788;SDS011;25478;42.626;23.320;2023-04-15T03:20:46;7.87;;;3.33;;
39788;SDS011;25478;42.626;23.320;2023-04-15T03:23:11;6.10;;;3.20;;
39788;SDS011;25478;42.626;23.320;2023-04-15T03:25:37;7.47;;;4.03;;
39788;SDS011;25478;42.626;23.320;2023-04-15T03:28:05;9.73;;;4.53;;
39788;SDS011;25478;42.626;23.320;2023-04-15T03:30:31;8.73;;;4.70;;
39788;SDS011;25478;42.626;23.320;2023-04-15T03:32:57;9.07;;;4.47;;
39788;SDS011;25478;42.626;23.320;2023-04-15T03:35:22;7.90;;;4.67;;
39788;SDS011;25478;42.626;23.320;2023-04-15T03:37:48;9.73;;;4.40;;
39788;SDS011;25478;42.626;23.320;2023-04-15T03:40:13;6.87;;;3.83;;
39788;SDS011;25478;42.626;23.320;2023-04-15T03:42:39;7.27;;;4.20;;
39788;SDS011;25478;42.626;23.320;2023-04-15T03:45:04;7.37;;;3.67;;
39788;SDS011;25478;42.626;23.320;2023-04-15T03:47:31;8.37;;;4.60;;
39788;SDS011;25478;42.626;23.320;2023-04-15T03:49:57;6.77;;;3.87;;
39788;SDS011;25478;42.626;23.320;2023-04-15T03:52:22;8.03;;;3.83;;
39788;SDS011;25478;42.626;23.320;2023-04-15T03:54:48;6.03;;;3.80;;
39788;SDS011;25478;42.626;23.320;2023-04-15T03:57:13;9.17;;;4.40;;
39788;SDS011;25478;42.626;23.320;2023-04-15T03:59:39;10.83;;;4.60;;
39788;SDS011;25478;42.626;23.320;2023-04-15T04:02:04;7.00;;;4.60;;
39788;SDS011;25478;42.626;23.320;2023-04-15T04:04:30;7.83;;;4.27;;
39788;SDS011;25478;42.626;23.320;2023-04-15T04:06:55;8.10;;;4.17;;
39788;SDS011;25478;42.626;23.320;2023-04-15T04:09:21;7.53;;;4.07;;
39788;SDS011;25478;42.626;23.320;2023-04-15T04:11:47;6.60;;;4.07;;
39788;SDS011;25478;42.626;23.320;2023-04-15T04:14:14;7.67;;;3.80;;
39788;SDS011;25478;42.626;23.320;2023-04-15T04:16:40;8.93;;;3.50;;
39788;SDS011;25478;42.626;23.320;2023-04-15T04:19:06;5.93;;;3.33;;
39788;SDS011;25478;42.626;23.320;2023-04-15T04:21:31;5.30;;;3.17;;
39788;SDS011;25478;42.626;23.320;2023-04-15T04:23:58;5.77;;;3.53;;
39788;SDS011;25478;42.626;23.320;2023-04-15T04:26:24;5.83;;;3.13;;
39788;SDS011;25478;42.626;23.320;2023-04-15T04:28:50;8.87;;;4.63;;
39788;SDS011;25478;42.626;23.320;2023-04-15T04:31:15;10.53;;;5.33;;
39788;SDS011;25478;42.626;23.320;2023-04-15T04:33:41;9.43;;;5.87;;
39788;SDS011;25478;42.626;23.320;2023-04-15T04:36:06;10.00;;;5.83;;
39788;SDS011;25478;42.626;23.320;2023-04-15T04:38:32;10.53;;;6.20;;
39788;SDS011;25478;42.626;23.320;2023-04-15T04:40:57;8.77;;;5.80;;
39788;SDS011;25478;42.626;23.320;2023-04-15T04:43:23;11.73;;;6.03;;
39788;SDS011;25478;42.626;23.320;2023-04-15T04:45:48;10.97;;;5.33;;
39788;SDS011;25478;42.626;23.320;2023-04-15T04:48:14;8.73;;;5.83;;
39788;SDS011;25478;42.626;23.320;2023-04-15T04:50:41;9.63;;;6.00;;
39788;SDS011;25478;42.626;23.320;2023-04-15T04:53:07;8.83;;;5.33;;
39788;SDS011;25478;42.626;23.320;2023-04-15T04:55:32;9.60;;;5.57;;
39788;SDS011;25478;42.626;23.320;2023-04-15T04:58:01;9.43;;;5.60;;
39788;SDS011;25478;42.626;23.320;2023-04-15T05:00:27;11.50;;;5.77;;
39788;SDS011;25478;42.626;23.320;2023-04-15T05:02:53;9.90;;;5.63;;
39788;SDS011;25478;42.626;23.320;2023-04-15T05:05:18;9.83;;;5.07;;
39788;SDS011;25478;42.626;23.320;2023-04-15T05:07:44;8.87;;;5.37;;
39788;SDS011;25478;42.626;23.320;2023-04-15T05:10:09;14.50;;;6.93;;
39788;SDS011;25478;42.626;23.320;2023-04-15T05:12:35;13.20;;;7.60;;
39788;SDS011;25478;42.626;23.320;2023-04-15T05:15:02;11.20;;;6.87;;
39788;SDS011;25478;42.626;23.320;2023-04-15T05:17:28;11.40;;;7.03;;
39788;SDS011;25478;42.626;23.320;2023-04-15T05:19:56;12.57;;;7.73;;
39788;SDS011;25478;42.626;23.320;2023-04-15T05:22:21;10.93;;;6.97;;
39788;SDS011;25478;42.626;23.320;2023-04-15T05:24:47;11.17;;;7.30;;
39788;SDS011;25478;42.626;23.320;2023-04-15T05:27:12;10.67;;;7.00;;
39788;SDS011;25478;42.626;23.320;2023-04-15T05:29:38;9.47;;;6.17;;
39788;SDS011;25478;42.626;23.320;2023-04-15T05:32:03;8.47;;;5.63;;
39788;SDS011;25478;42.626;23.320;2023-04-15T05:34:29;8.70;;;4.63;;
39788;SDS011;25478;42.626;23.320;2023-04-15T05:36:55;9.40;;;5.03;;
39788;SDS011;25478;42.626;23.320;2023-04-15T05:39:21;7.17;;;4.57;;
39788;SDS011;25478;42.626;23.320;2023-04-15T05:41:47;9.33;;;4.77;;
39788;SDS011;25478;42.626;23.320;2023-04-15T05:44:12;7.10;;;4.33;;
39788;SDS011;25478;42.626;23.320;2023-04-15T05:46:38;7.20;;;4.37;;
39788;SDS011;25478;42.626;23.320;2023-04-15T05:49:03;7.23;;;4.90;;
39788;SDS011;25478;42.626;23.320;2023-04-15T05:51:29;10.27;;;5.00;;
39788;SDS011;25478;42.626;23.320;2023-04-15T05:53:54;9.70;;;5.10;;
39788;SDS011;25478;42.626;23.320;2023-04-15T05:56:20;7.83;;;4.57;;
39788;SDS011;25478;42.626;23.320;2023-04-15T05:58:47;7.60;;;5.10;;
39788;SDS011;25478;42.626;23.320;2023-04-15T06:01:12;10.60;;;5.63;;
39788;SDS011;25478;42.626;23.320;2023-04-15T06:03:39;11.67;;;6.73;;
39788;SDS011;25478;42.626;23.320;2023-04-15T06:06:04;10.50;;;6.37;;
39788;SDS011;25478;42.626;23.320;2023-04-15T06:08:30;11.30;;;6.33;;
39788;SDS011;25478;42.626;23.320;2023-04-15T06:10:57;10.67;;;5.57;;
39788;SDS011;25478;42.626;23.320;2023-04-15T06:13:22;9.80;;;4.90;;
39788;SDS011;25478;42.626;23.320;2023-04-15T06:15:48;7.70;;;4.43;;
39788;SDS011;25478;42.626;23.320;2023-04-15T06:18:13;6.50;;;3.73;;
39788;SDS011;25478;42.626;23.320;2023-04-15T06:20:39;5.00;;;3.40;;
39788;SDS011;25478;42.626;23.320;2023-04-15T06:23:04;7.70;;;4.00;;
39788;SDS011;25478;42.626;23.320;2023-04-15T06:25:30;7.80;;;3.97;;
39788;SDS011;25478;42.626;23.320;2023-04-15T06:27:56;8.50;;;4.07;;
39788;SDS011;25478;42.626;23.320;2023-04-15T06:30:22;6.87;;;3.90;;
39788;SDS011;25478;42.626;23.320;2023-04-15T06:32:47;8.60;;;4.30;;
39788;SDS011;25478;42.626;23.320;2023-04-15T06:35:13;7.90;;;3.93;;
39788;SDS011;25478;42.626;23.320;2023-04-15T06:37:39;8.13;;;4.03;;
39788;SDS011;25478;42.626;23.320;2023-04-15T06:40:05;8.00;;;4.60;;
39788;SDS011;25478;42.626;23.320;2023-04-15T06:42:32;9.87;;;4.60;;
39788;SDS011;25478;42.626;23.320;2023-04-15T06:44:58;8.33;;;4.47;;
39788;SDS011;25478;42.626;23.320;2023-04-15T06:47:23;8.73;;;4.33;;
39788;SDS011;25478;42.626;23.320;2023-04-15T06:49:49;7.73;;;4.50;;
39788;SDS011;25478;42.626;23.320;2023-04-15T06:52:15;9.47;;;4.80;;
39788;SDS011;25478;42.626;23.320;2023-04-15T06:54:41;9.57;;;4.43;;
39788;SDS011;25478;42.626;23.320;2023-04-15T06:57:06;8.87;;;4.20;;
39788;SDS011;25478;42.626;23.320;2023-04-15T06:59:33;7.13;;;4.00;;
39788;SDS011;25478;42.626;23.320;2023-04-15T07:01:58;9.30;;;4.33;;
39788;SDS011;25478;42.626;23.320;2023-04-15T07:04:24;7.60;;;3.90;;
39788;SDS011;25478;42.626;23.320;2023-04-15T07:06:49;7.70;;;4.23;;
39788;SDS011;25478;42.626;23.320;2023-04-15T07:09:16;7.40;;;3.90;;
39788;SDS011;25478;42.626;23.320;2023-04-15T07:11:42;6.63;;;3.83;;
39788;SDS011;25478;42.626;23.320;2023-04-15T07:14:07;8.37;;;3.60;;
39788;SDS011;25478;42.626;23.320;2023-04-15T07:16:33;5.90;;;3.40;;
39788;SDS011;25478;42.626;23.320;2023-04-15T07:18:58;6.63;;;3.67;;
39788;SDS011;25478;42.626;23.320;2023-04-15T07:21:24;7.77;;;3.97;;
39788;SDS011;25478;42.626;23.320;2023-04-15T07:23:49;8.47;;;3.53;;
39788;SDS011;25478;42.626;23.320;2023-04-15T07:26:15;7.73;;;3.07;;
39788;SDS011;25478;42.626;23.320;2023-04-15T07:28:40;7.07;;;3.30;;
39788;SDS011;25478;42.626;23.320;2023-04-15T07:31:06;7.53;;;3.17;;
39788;SDS011;25478;42.626;23.320;2023-04-15T07:33:31;5.33;;;3.20;;
39788;SDS011;25478;42.626;23.320;2023-04-15T07:35:57;7.13;;;3.53;;
39788;SDS011;25478;42.626;23.320;2023-04-15T07:38:22;7.27;;;3.37;;
39788;SDS011;25478;42.626;23.320;2023-04-15T07:40:48;7.37;;;3.30;;
39788;SDS011;25478;42.626;23.320;2023-04-15T07:43:14;6.97;;;2.93;;
39788;SDS011;25478;42.626;23.320;2023-04-15T07:45:40;6.43;;;3.63;;
39788;SDS011;25478;42.626;23.320;2023-04-15T07:48:07;10.00;;;3.77;;
39788;SDS011;25478;42.626;23.320;2023-04-15T07:50:32;7.67;;;4.17;;
39788;SDS011;25478;42.626;23.320;2023-04-15T07:52:58;7.70;;;3.60;;
39788;SDS011;25478;42.626;23.320;2023-04-15T07:55:23;8.63;;;3.83;;
39788;SDS011;25478;42.626;23.320;2023-04-15T07:57:49;7.10;;;3.43;;
39788;SDS011;25478;42.626;23.320;2023-04-15T08:00:16;7.40;;;3.30;;
39788;SDS011;25478;42.626;23.320;2023-04-15T08:02:42;4.90;;;2.90;;
39788;SDS011;25478;42.626;23.320;2023-04-15T08:05:08;6.57;;;3.27;;
39788;SDS011;25478;42.626;23.320;2023-04-15T08:07:37;6.87;;;3.13;;
39788;SDS011;25478;42.626;23.320;2023-04-15T08:10:03;6.53;;;2.97;;
39788;SDS011;25478;42.626;23.320;2023-04-15T08:12:29;7.70;;;3.07;;
39788;SDS011;25478;42.626;23.320;2023-04-15T08:14:54;7.03;;;2.67;;
39788;SDS011;25478;42.626;23.320;2023-04-15T08:17:21;6.50;;;2.90;;
39788;SDS011;25478;42.626;23.320;2023-04-15T08:19:46;6.90;;;2.80;;
39788;SDS011;25478;42.626;23.320;2023-04-15T08:22:12;6.93;;;2.70;;
39788;SDS011;25478;42.626;23.320;2023-04-15T08:24:38;5.37;;;2.63;;
39788;SDS011;25478;42.626;23.320;2023-04-15T08:27:04;5.80;;;3.20;;
39788;SDS011;25478;42.626;23.320;2023-04-15T08:29:30;7.30;;;3.20;;
39788;SDS011;25478;42.626;23.320;2023-04-15T08:31:58;8.90;;;3.57;;
39788;SDS011;25478;42.626;23.320;2023-04-15T08:34:24;6.70;;;2.97;;
39788;SDS011;25478;42.626;23.320;2023-04-15T08:36:50;8.77;;;3.37;;
39788;SDS011;25478;42.626;23.320;2023-04-15T08:39:15;8.13;;;3.17;;
39788;SDS011;25478;42.626;23.320;2023-04-15T08:41:45;6.90;;;2.90;;
39788;SDS011;25478;42.626;23.320;2023-04-15T08:44:12;6.50;;;3.10;;
39788;SDS011;25478;42.626;23.320;2023-04-15T08:46:39;5.30;;;2.37;;
39788;SDS011;25478;42.626;23.320;2023-04-15T08:49:08;5.20;;;2.30;;
39788;SDS011;25478;42.626;23.320;2023-04-15T08:51:35;4.10;;;2.20;;
39788;SDS011;25478;42.626;23.320;2023-04-15T08:54:01;7.03;;;2.30;;
39788;SDS011;25478;42.626;23.320;2023-04-15T08:56:27;5.07;;;2.20;;
39788;SDS011;25478;42.626;23.320;2023-04-15T08:58:57;2.17;;;0.90;;
39788;SDS011;25478;42.626;23.320;2023-04-15T09:01:23;2.50;;;0.70;;
39788;SDS011;25478;42.626;23.320;2023-04-15T09:03:49;5.07;;;2.00;;
39788;SDS011;25478;42.626;23.320;2023-04-15T09:06:16;4.97;;;1.90;;
39788;SDS011;25478;42.626;23.320;2023-04-15T09:08:42;5.17;;;1.90;;
39788;SDS011;25478;42.626;23.320;2023-04-15T09:11:07;4.83;;;1.60;;
39788;SDS011;25478;42.626;23.320;2023-04-15T09:13:33;6.50;;;2.03;;
39788;SDS011;25478;42.626;23.320;2023-04-15T09:16:01;3.27;;;1.40;;
39788;SDS011;25478;42.626;23.320;2023-04-15T09:18:29;1.77;;;0.87;;
39788;SDS011;25478;42.626;23.320;2023-04-15T09:21:08;3.33;;;1.00;;
39788;SDS011;25478;42.626;23.320;2023-04-15T09:23:39;5.73;;;1.43;;
39788;SDS011;25478;42.626;23.320;2023-04-15T09:26:18;4.10;;;1.30;;
39788;SDS011;25478;42.626;23.320;2023-04-15T09:28:43;4.63;;;1.50;;
39788;SDS011;25478;42.626;23.320;2023-04-15T09:31:08;3.63;;;1.27;;
39788;SDS011;25478;42.626;23.320;2023-04-15T09:33:35;3.07;;;1.20;;
39788;SDS011;25478;42.626;23.320;2023-04-15T09:36:18;3.40;;;1.00;;
39788;SDS011;25478;42.626;23.320;2023-04-15T09:38:54;2.83;;;1.10;;
39788;SDS011;25478;42.626;23.320;2023-04-15T09:41:21;2.80;;;0.80;;
39788;SDS011;25478;42.626;23.320;2023-04-15T09:43:47;4.35;;;1.05;;
39788;SDS011;25478;42.626;23.320;2023-04-15T09:46:13;2.90;;;1.10;;
39788;SDS011;25478;42.626;23.320;2023-04-15T09:48:38;3.42;;;1.42;;
39788;SDS011;25478;42.626;23.320;2023-04-15T09:51:04;2.80;;;1.35;;
39788;SDS011;25478;42.626;23.320;2023-04-15T09:53:32;3.25;;;1.20;;
39788;SDS011;25478;42.626;23.320;2023-04-15T09:55:59;2.45;;;0.90;;
39788;SDS011;25478;42.626;23.320;2023-04-15T09:58:29;2.17;;;0.85;;
39788;SDS011;25478;42.626;23.320;2023-04-15T10:00:57;3.25;;;0.80;;
39788;SDS011;25478;42.626;23.320;2023-04-15T10:03:33;2.53;;;0.90;;
39788;SDS011;25478;42.626;23.320;2023-04-15T10:06:01;2.33;;;0.70;;
39788;SDS011;25478;42.626;23.320;2023-04-15T10:08:31;4.00;;;0.75;;
39788;SDS011;25478;42.626;23.320;2023-04-15T10:11:01;3.53;;;0.80;;
39788;SDS011;25478;42.626;23.320;2023-04-15T10:13:30;3.90;;;1.10;;
39788;SDS011;25478;42.626;23.320;2023-04-15T10:16:04;2.33;;;0.80;;
39788;SDS011;25478;42.626;23.320;2023-04-15T10:18:40;1.83;;;0.90;;
39788;SDS011;25478;42.626;23.320;2023-04-15T10:21:08;5.30;;;2.50;;
39788;SDS011;25478;42.626;23.320;2023-04-15T10:23:34;3.58;;;1.50;;
39788;SDS011;25478;42.626;23.320;2023-04-15T10:26:00;4.65;;;1.70;;
39788;SDS011;25478;42.626;23.320;2023-04-15T10:28:26;3.47;;;1.35;;
39788;SDS011;25478;42.626;23.320;2023-04-15T10:30:52;3.78;;;0.82;;
39788;SDS011;25478;42.626;23.320;2023-04-15T10:33:19;3.28;;;1.00;;
39788;SDS011;25478;42.626;23.320;2023-04-15T10:35:47;3.42;;;0.80;;
39788;SDS011;25478;42.626;23.320;2023-04-15T10:41:18;2.78;;;0.80;;
39788;SDS011;25478;42.626;23.320;2023-04-15T10:43:49;2.40;;;0.80;;
39788;SDS011;25478;42.626;23.320;2023-04-15T10:49:13;1.58;;;0.70;;
39788;SDS011;25478;42.626;23.320;2023-04-15T10:51:56;3.10;;;1.08;;
39788;SDS011;25478;42.626;23.320;2023-04-15T10:59:29;2.22;;;0.70;;
39788;SDS011;25478;42.626;23.320;2023-04-15T11:01:56;2.50;;;0.80;;
39788;SDS011;25478;42.626;23.320;2023-04-15T11:12:53;3.28;;;0.90;;
39788;SDS011;25478;42.626;23.320;2023-04-15T11:18:18;2.70;;;0.90;;
39788;SDS011;25478;42.626;23.320;2023-04-15T11:20:48;1.92;;;1.00;;
39788;SDS011;25478;42.626;23.320;2023-04-15T11:25:59;2.38;;;0.80;;
39788;SDS011;25478;42.626;23.320;2023-04-15T11:28:30;2.67;;;0.80;;
39788;SDS011;25478;42.626;23.320;2023-04-15T11:30:56;1.75;;;0.70;;
39788;SDS011;25478;42.626;23.320;2023-04-15T11:33:23;2.30;;;0.90;;
39788;SDS011;25478;42.626;23.320;2023-04-15T11:35:49;2.22;;;0.90;;
39788;SDS011;25478;42.626;23.320;2023-04-15T11:38:18;2.45;;;0.73;;
39788;SDS011;25478;42.626;23.320;2023-04-15T11:40:44;2.92;;;1.30;;
39788;SDS011;25478;42.626;23.320;2023-04-15T11:43:11;4.18;;;1.50;;
39788;SDS011;25478;42.626;23.320;2023-04-15T11:48:13;3.47;;;0.80;;
39788;SDS011;25478;42.626;23.320;2023-04-15T11:50:39;3.63;;;0.90;;
39788;SDS011;25478;42.626;23.320;2023-04-15T11:53:09;2.47;;;0.80;;
39788;SDS011;25478;42.626;23.320;2023-04-15T11:55:42;1.48;;;0.60;;
39788;SDS011;25478;42.626;23.320;2023-04-15T11:58:14;2.42;;;0.90;;
39788;SDS011;25478;42.626;23.320;2023-04-15T12:03:30;1.48;;;0.70;;
39788;SDS011;25478;42.626;23.320;2023-04-15T12:06:04;2.17;;;0.60;;
39788;SDS011;25478;42.626;23.320;2023-04-15T12:13:55;1.90;;;0.75;;
39788;SDS011;25478;42.626;23.320;2023-04-15T12:16:24;2.65;;;1.00;;
39788;SDS011;25478;42.626;23.320;2023-04-15T12:18:53;1.73;;;0.70;;
39788;SDS011;25478;42.626;23.320;2023-04-15T12:21:21;3.42;;;0.75;;
39788;SDS011;25478;42.626;23.320;2023-04-15T12:23:48;4.47;;;1.10;;
39788;SDS011;25478;42.626;23.320;2023-04-15T12:26:24;2.38;;;0.98;;
39788;SDS011;25478;42.626;23.320;2023-04-15T12:28:54;2.22;;;0.98;;
39788;SDS011;25478;42.626;23.320;2023-04-15T12:31:24;2.05;;;0.98;;
39788;SDS011;25478;42.626;23.320;2023-04-15T12:33:50;2.85;;;0.98;;
39788;SDS011;25478;42.626;23.320;2023-04-15T12:36:15;1.75;;;0.60;;
39788;SDS011;25478;42.626;23.320;2023-04-15T12:38:41;2.65;;;0.88;;
39788;SDS011;25478;42.626;23.320;2023-04-15T12:41:06;2.83;;;1.08;;
39788;SDS011;25478;42.626;23.320;2023-04-15T12:43:33;2.90;;;0.88;;
39788;SDS011;25478;42.626;23.320;2023-04-15T12:45:58;2.15;;;0.70;;
39788;SDS011;25478;42.626;23.320;2023-04-15T12:48:25;2.00;;;0.60;;
39788;SDS011;25478;42.626;23.320;2023-04-15T12:50:50;2.35;;;0.60;;
39788;SDS011;25478;42.626;23.320;2023-04-15T12:53:16;3.22;;;0.90;;
39788;SDS011;25478;42.626;23.320;2023-04-15T12:55:43;2.13;;;0.68;;
39788;SDS011;25478;42.626;23.320;2023-04-15T12:58:08;1.88;;;0.70;;
39788;SDS011;25478;42.626;23.320;2023-04-15T13:00:35;2.55;;;0.80;;
39788;SDS011;25478;42.626;23.320;2023-04-15T13:03:01;1.73;;;0.70;;
39788;SDS011;25478;42.626;23.320;2023-04-15T13:05:27;2.30;;;0.70;;
39788;SDS011;25478;42.626;23.320;2023-04-15T13:07:53;2.85;;;1.15;;
39788;SDS011;25478;42.626;23.320;2023-04-15T13:10:18;4.15;;;1.02;;
39788;SDS011;25478;42.626;23.320;2023-04-15T13:12:44;3.42;;;0.82;;
39788;SDS011;25478;42.626;23.320;2023-04-15T13:15:11;4.32;;;1.05;;
39788;SDS011;25478;42.626;23.320;2023-04-15T13:17:37;3.20;;;1.23;;
39788;SDS011;25478;42.626;23.320;2023-04-15T13:20:03;3.08;;;0.80;;
39788;SDS011;25478;42.626;23.320;2023-04-15T13:22:28;1.65;;;0.68;;
39788;SDS011;25478;42.626;23.320;2023-04-15T13:24:54;2.53;;;1.00;;
39788;SDS011;25478;42.626;23.320;2023-04-15T13:27:19;1.65;;;0.60;;
39788;SDS011;25478;42.626;23.320;2023-04-15T13:29:45;1.98;;;0.80;;
39788;SDS011;25478;42.626;23.320;2023-04-15T13:32:11;1.88;;;0.82;;
39788;SDS011;25478;42.626;23.320;2023-04-15T13:34:36;3.03;;;0.90;;
39788;SDS011;25478;42.626;23.320;2023-04-15T13:37:06;2.47;;;0.70;;
39788;SDS011;25478;42.626;23.320;2023-04-15T13:39:33;2.08;;;0.80;;
39788;SDS011;25478;42.626;23.320;2023-04-15T13:42:00;1.75;;;0.80;;
39788;SDS011;25478;42.626;23.320;2023-04-15T13:44:27;1.52;;;0.60;;
39788;SDS011;25478;42.626;23.320;2023-04-15T13:46:52;1.58;;;0.70;;
39788;SDS011;25478;42.626;23.320;2023-04-15T13:49:18;2.40;;;0.73;;
39788;SDS011;25478;42.626;23.320;2023-04-15T13:51:43;2.45;;;0.82;;
39788;SDS011;25478;42.626;23.320;2023-04-15T13:54:09;5.10;;;1.85;;
39788;SDS011;25478;42.626;23.320;2023-04-15T13:56:34;3.50;;;1.25;;
39788;SDS011;25478;42.626;23.320;2023-04-15T13:59:00;1.83;;;0.70;;
39788;SDS011;25478;42.626;23.320;2023-04-15T14:01:26;2.58;;;0.90;;
39788;SDS011;25478;42.626;23.320;2023-04-15T14:03:52;3.30;;;1.23;;
39788;SDS011;25478;42.626;23.320;2023-04-15T14:06:19;4.07;;;1.52;;
39788;SDS011;25478;42.626;23.320;2023-04-15T14:08:44;4.13;;;1.02;;
39788;SDS011;25478;42.626;23.320;2023-04-15T14:11:10;5.05;;;0.90;;
39788;SDS011;25478;42.626;23.320;2023-04-15T14:13:36;2.67;;;1.45;;
39788;SDS011;25478;42.626;23.320;2023-04-15T14:16:01;4.15;;;1.00;;
39788;SDS011;25478;42.626;23.320;2023-04-15T14:18:27;2.60;;;1.00;;
39788;SDS011;25478;42.626;23.320;2023-04-15T14:20:53;2.67;;;1.20;;
39788;SDS011;25478;42.626;23.320;2023-04-15T14:23:19;2.28;;;0.98;;
39788;SDS011;25478;42.626;23.320;2023-04-15T14:25:45;2.47;;;0.90;;
39788;SDS011;25478;42.626;23.320;2023-04-15T14:28:11;1.95;;;0.77;;
39788;SDS011;25478;42.626;23.320;2023-04-15T14:30:36;3.53;;;1.05;;
39788;SDS011;25478;42.626;23.320;2023-04-15T14:33:02;3.00;;;0.98;;
39788;SDS011;25478;42.626;23.320;2023-04-15T14:35:27;3.33;;;1.20;;
39788;SDS011;25478;42.626;23.320;2023-04-15T14:37:53;3.08;;;1.20;;
39788;SDS011;25478;42.626;23.320;2023-04-15T14:40:21;2.33;;;1.10;;
39788;SDS011;25478;42.626;23.320;2023-04-15T14:42:47;2.72;;;1.20;;
39788;SDS011;25478;42.626;23.320;2023-04-15T14:45:13;2.28;;;0.80;;
39788;SDS011;25478;42.626;23.320;2023-04-15T14:47:38;3.70;;;0.90;;
39788;SDS011;25478;42.626;23.320;2023-04-15T14:50:05;1.98;;;0.85;;
39788;SDS011;25478;42.626;23.320;2023-04-15T14:52:31;2.53;;;1.02;;
39788;SDS011;25478;42.626;23.320;2023-04-15T14:55:12;3.13;;;1.38;;
39788;SDS011;25478;42.626;23.320;2023-04-15T14:57:38;7.45;;;2.65;;
39788;SDS011;25478;42.626;23.320;2023-04-15T15:00:05;6.38;;;2.50;;
39788;SDS011;25478;42.626;23.320;2023-04-15T15:02:33;5.05;;;1.67;;
39788;SDS011;25478;42.626;23.320;2023-04-15T15:05:00;6.07;;;2.50;;